sensor_id;sensor_type;location;lat;lon;timestamp;P1;durP1;ratioP1;P2;durP2;ratioP2
68593;SDS011;55563;52.416;13.548;2023-03-20T00:00:55;4.15;;;2.80;;
68593;SDS011;55563;52.416;13.548;2023-03-20T00:02:57;3.78;;;2.70;;
68593;SDS011;55563;52.416;13.548;2023-03-20T00:04:57;3.42;;;2.60;;
68593;SDS011;55563;52.416;13.548;2023-03-20T00:06:58;3.83;;;2.50;;
68593;SDS011;55563;52.416;13.548;2023-03-20T00:08:59;3.08;;;2.42;;
68593;SDS011;55563;52.416;13.548;2023-03-20T00:11:01;3.60;;;2.75;;
68593;SDS011;55563;52.416;13.548;2023-03-20T00:13:02;3.38;;;2.60;;
68593;SDS011;55563;52.416;13.548;2023-03-20T00:15:05;3.10;;;2.45;;
68593;SDS011;55563;52.416;13.548;2023-03-20T00:17:16;3.10;;;2.60;;
68593;SDS011;55563;52.416;13.548;2023-03-20T00:19:21;3.15;;;2.42;;
68593;SDS011;55563;52.416;13.548;2023-03-20T00:21:23;3.92;;;2.83;;
68593;SDS011;55563;52.416;13.548;2023-03-20T00:25:26;3.25;;;2.50;;
68593;SDS011;55563;52.416;13.548;2023-03-20T00:27:27;4.05;;;2.70;;
68593;SDS011;55563;52.416;13.548;2023-03-20T00:29:28;4.78;;;2.60;;
68593;SDS011;55563;52.416;13.548;2023-03-20T00:31:34;5.40;;;3.67;;
68593;SDS011;55563;52.416;13.548;2023-03-20T00:33:36;3.80;;;2.33;;
68593;SDS011;55563;52.416;13.548;2023-03-20T00:35:37;5.15;;;2.83;;
68593;SDS011;55563;52.416;13.548;2023-03-20T00:37:38;3.30;;;2.63;;
68593;SDS011;55563;52.416;13.548;2023-03-20T00:39:39;3.13;;;2.35;;
68593;SDS011;55563;52.416;13.548;2023-03-20T00:41:44;4.57;;;2.72;;
68593;SDS011;55563;52.416;13.548;2023-03-20T00:43:52;3.88;;;2.45;;
68593;SDS011;55563;52.416;13.548;2023-03-20T00:45:56;3.47;;;2.53;;
68593;SDS011;55563;52.416;13.548;2023-03-20T00:47:56;3.47;;;2.42;;
68593;SDS011;55563;52.416;13.548;2023-03-20T00:49:57;5.05;;;2.60;;
68593;SDS011;55563;52.416;13.548;2023-03-20T00:51:59;3.47;;;2.70;;
68593;SDS011;55563;52.416;13.548;2023-03-20T00:54:04;3.25;;;2.40;;
68593;SDS011;55563;52.416;13.548;2023-03-20T00:56:23;4.95;;;2.90;;
68593;SDS011;55563;52.416;13.548;2023-03-20T00:58:30;4.43;;;3.08;;
68593;SDS011;55563;52.416;13.548;2023-03-20T01:00:35;4.22;;;2.95;;
68593;SDS011;55563;52.416;13.548;2023-03-20T01:02:40;4.45;;;2.63;;
68593;SDS011;55563;52.416;13.548;2023-03-20T01:04:41;3.50;;;2.70;;
68593;SDS011;55563;52.416;13.548;2023-03-20T01:08:43;4.70;;;2.95;;
68593;SDS011;55563;52.416;13.548;2023-03-20T01:10:44;5.18;;;2.92;;
68593;SDS011;55563;52.416;13.548;2023-03-20T01:12:48;3.92;;;3.03;;
68593;SDS011;55563;52.416;13.548;2023-03-20T01:14:50;3.78;;;2.83;;
68593;SDS011;55563;52.416;13.548;2023-03-20T01:16:55;4.90;;;3.10;;
68593;SDS011;55563;52.416;13.548;2023-03-20T01:18:56;3.85;;;2.88;;
68593;SDS011;55563;52.416;13.548;2023-03-20T01:20:57;4.28;;;3.03;;
68593;SDS011;55563;52.416;13.548;2023-03-20T01:22:58;5.53;;;3.20;;
68593;SDS011;55563;52.416;13.548;2023-03-20T01:24:59;3.65;;;2.72;;
68593;SDS011;55563;52.416;13.548;2023-03-20T01:27:00;3.55;;;2.80;;
68593;SDS011;55563;52.416;13.548;2023-03-20T01:29:03;4.05;;;2.95;;
68593;SDS011;55563;52.416;13.548;2023-03-20T01:31:16;4.85;;;3.20;;
68593;SDS011;55563;52.416;13.548;2023-03-20T01:33:18;4.45;;;2.80;;
68593;SDS011;55563;52.416;13.548;2023-03-20T01:35:27;3.42;;;2.67;;
68593;SDS011;55563;52.416;13.548;2023-03-20T01:37:30;3.92;;;2.92;;
68593;SDS011;55563;52.416;13.548;2023-03-20T01:39:35;4.93;;;3.63;;
68593;SDS011;55563;52.416;13.548;2023-03-20T01:41:37;4.57;;;3.05;;
68593;SDS011;55563;52.416;13.548;2023-03-20T01:43:40;4.50;;;2.95;;
68593;SDS011;55563;52.416;13.548;2023-03-20T01:45:48;4.07;;;3.10;;
68593;SDS011;55563;52.416;13.548;2023-03-20T01:48:11;5.03;;;3.08;;
68593;SDS011;55563;52.416;13.548;2023-03-20T01:50:31;4.03;;;3.00;;
68593;SDS011;55563;52.416;13.548;2023-03-20T01:52:38;4.15;;;3.03;;
68593;SDS011;55563;52.416;13.548;2023-03-20T01:54:39;5.22;;;3.53;;
68593;SDS011;55563;52.416;13.548;2023-03-20T01:56:48;4.90;;;3.33;;
68593;SDS011;55563;52.416;13.548;2023-03-20T01:58:56;3.75;;;3.08;;
68593;SDS011;55563;52.416;13.548;2023-03-20T02:01:01;4.20;;;3.55;;
68593;SDS011;55563;52.416;13.548;2023-03-20T02:03:05;5.20;;;3.50;;
68593;SDS011;55563;52.416;13.548;2023-03-20T02:05:28;5.82;;;3.30;;
68593;SDS011;55563;52.416;13.548;2023-03-20T02:07:30;7.22;;;3.40;;
68593;SDS011;55563;52.416;13.548;2023-03-20T02:09:37;4.53;;;3.20;;
68593;SDS011;55563;52.416;13.548;2023-03-20T02:11:43;4.18;;;2.83;;
68593;SDS011;55563;52.416;13.548;2023-03-20T02:13:46;3.90;;;2.85;;
68593;SDS011;55563;52.416;13.548;2023-03-20T02:15:56;4.55;;;3.17;;
68593;SDS011;55563;52.416;13.548;2023-03-20T02:18:14;4.53;;;3.50;;
68593;SDS011;55563;52.416;13.548;2023-03-20T02:28:04;4.82;;;3.20;;
68593;SDS011;55563;52.416;13.548;2023-03-20T02:33:25;5.05;;;3.50;;
68593;SDS011;55563;52.416;13.548;2023-03-20T02:35:37;4.15;;;3.33;;
68593;SDS011;55563;52.416;13.548;2023-03-20T02:37:56;4.45;;;3.10;;
68593;SDS011;55563;52.416;13.548;2023-03-20T02:40:23;5.22;;;3.42;;
68593;SDS011;55563;52.416;13.548;2023-03-20T02:42:58;4.32;;;3.40;;
68593;SDS011;55563;52.416;13.548;2023-03-20T02:45:13;4.78;;;3.42;;
68593;SDS011;55563;52.416;13.548;2023-03-20T02:47:27;5.53;;;3.58;;
68593;SDS011;55563;52.416;13.548;2023-03-20T02:52:04;6.43;;;4.45;;
68593;SDS011;55563;52.416;13.548;2023-03-20T02:54:36;6.60;;;4.53;;
68593;SDS011;55563;52.416;13.548;2023-03-20T02:56:55;5.35;;;3.58;;
68593;SDS011;55563;52.416;13.548;2023-03-20T03:01:32;5.72;;;3.90;;
68593;SDS011;55563;52.416;13.548;2023-03-20T03:03:43;4.97;;;3.55;;
68593;SDS011;55563;52.416;13.548;2023-03-20T03:05:51;4.80;;;3.70;;
68593;SDS011;55563;52.416;13.548;2023-03-20T03:07:57;4.97;;;3.70;;
68593;SDS011;55563;52.416;13.548;2023-03-20T03:10:08;5.07;;;3.63;;
68593;SDS011;55563;52.416;13.548;2023-03-20T03:12:16;5.03;;;3.58;;
68593;SDS011;55563;52.416;13.548;2023-03-20T03:14:52;6.70;;;4.10;;
68593;SDS011;55563;52.416;13.548;2023-03-20T03:16:48;4.90;;;3.63;;
68593;SDS011;55563;52.416;13.548;2023-03-20T03:18:56;4.68;;;3.63;;
68593;SDS011;55563;52.416;13.548;2023-03-20T03:21:04;5.32;;;4.05;;
68593;SDS011;55563;52.416;13.548;2023-03-20T03:23:14;5.00;;;3.45;;
68593;SDS011;55563;52.416;13.548;2023-03-20T03:25:29;6.85;;;4.22;;
68593;SDS011;55563;52.416;13.548;2023-03-20T03:27:35;5.35;;;3.45;;
68593;SDS011;55563;52.416;13.548;2023-03-20T03:29:38;4.65;;;3.60;;
68593;SDS011;55563;52.416;13.548;2023-03-20T03:31:42;5.38;;;3.67;;
68593;SDS011;55563;52.416;13.548;2023-03-20T03:33:45;4.43;;;3.60;;
68593;SDS011;55563;52.416;13.548;2023-03-20T03:35:50;4.68;;;3.67;;
68593;SDS011;55563;52.416;13.548;2023-03-20T03:40:44;4.18;;;3.38;;
68593;SDS011;55563;52.416;13.548;2023-03-20T03:42:54;4.82;;;3.78;;
68593;SDS011;55563;52.416;13.548;2023-03-20T03:45:05;5.00;;;3.58;;
68593;SDS011;55563;52.416;13.548;2023-03-20T03:47:18;4.63;;;3.60;;
68593;SDS011;55563;52.416;13.548;2023-03-20T03:49:24;4.28;;;3.40;;
68593;SDS011;55563;52.416;13.548;2023-03-20T03:51:29;5.60;;;3.20;;
68593;SDS011;55563;52.416;13.548;2023-03-20T03:53:39;4.05;;;3.25;;
68593;SDS011;55563;52.416;13.548;2023-03-20T03:55:44;4.50;;;3.33;;
68593;SDS011;55563;52.416;13.548;2023-03-20T03:57:51;4.82;;;3.53;;
68593;SDS011;55563;52.416;13.548;2023-03-20T04:02:01;4.88;;;3.33;;
68593;SDS011;55563;52.416;13.548;2023-03-20T04:04:06;4.47;;;3.25;;
68593;SDS011;55563;52.416;13.548;2023-03-20T04:06:10;5.35;;;3.60;;
68593;SDS011;55563;52.416;13.548;2023-03-20T04:08:13;5.15;;;3.38;;
68593;SDS011;55563;52.416;13.548;2023-03-20T04:10:14;4.50;;;3.38;;
68593;SDS011;55563;52.416;13.548;2023-03-20T04:12:32;4.93;;;3.40;;
68593;SDS011;55563;52.416;13.548;2023-03-20T04:14:35;3.92;;;3.25;;
68593;SDS011;55563;52.416;13.548;2023-03-20T04:16:36;4.53;;;3.45;;
68593;SDS011;55563;52.416;13.548;2023-03-20T04:18:37;4.75;;;3.67;;
68593;SDS011;55563;52.416;13.548;2023-03-20T04:20:37;5.07;;;3.50;;
68593;SDS011;55563;52.416;13.548;2023-03-20T04:24:42;5.93;;;3.33;;
68593;SDS011;55563;52.416;13.548;2023-03-20T04:26:44;4.80;;;3.53;;
68593;SDS011;55563;52.416;13.548;2023-03-20T04:28:44;4.68;;;3.53;;
68593;SDS011;55563;52.416;13.548;2023-03-20T04:31:05;5.22;;;3.35;;
68593;SDS011;55563;52.416;13.548;2023-03-20T04:33:14;4.38;;;3.55;;
68593;SDS011;55563;52.416;13.548;2023-03-20T04:35:35;5.57;;;3.60;;
68593;SDS011;55563;52.416;13.548;2023-03-20T04:37:41;4.80;;;3.22;;
68593;SDS011;55563;52.416;13.548;2023-03-20T04:39:42;4.22;;;3.22;;
68593;SDS011;55563;52.416;13.548;2023-03-20T04:41:44;4.82;;;3.42;;
68593;SDS011;55563;52.416;13.548;2023-03-20T04:45:45;5.63;;;3.60;;
68593;SDS011;55563;52.416;13.548;2023-03-20T04:47:46;5.13;;;3.50;;
68593;SDS011;55563;52.416;13.548;2023-03-20T04:49:48;4.15;;;3.15;;
68593;SDS011;55563;52.416;13.548;2023-03-20T04:51:52;4.82;;;3.47;;
68593;SDS011;55563;52.416;13.548;2023-03-20T04:54:04;4.45;;;3.33;;
68593;SDS011;55563;52.416;13.548;2023-03-20T04:56:05;5.95;;;3.58;;
68593;SDS011;55563;52.416;13.548;2023-03-20T04:58:07;4.72;;;3.50;;
68593;SDS011;55563;52.416;13.548;2023-03-20T05:00:08;5.78;;;3.47;;
68593;SDS011;55563;52.416;13.548;2023-03-20T05:02:11;5.03;;;3.33;;
68593;SDS011;55563;52.416;13.548;2023-03-20T05:04:14;4.45;;;3.38;;
68593;SDS011;55563;52.416;13.548;2023-03-20T05:06:15;5.05;;;3.45;;
68593;SDS011;55563;52.416;13.548;2023-03-20T05:08:17;4.53;;;3.50;;
68593;SDS011;55563;52.416;13.548;2023-03-20T05:10:18;5.20;;;3.90;;
68593;SDS011;55563;52.416;13.548;2023-03-20T05:12:26;5.50;;;3.90;;
68593;SDS011;55563;52.416;13.548;2023-03-20T05:14:46;4.82;;;3.50;;
68593;SDS011;55563;52.416;13.548;2023-03-20T05:19:17;5.43;;;3.58;;
68593;SDS011;55563;52.416;13.548;2023-03-20T05:21:29;4.78;;;3.28;;
68593;SDS011;55563;52.416;13.548;2023-03-20T05:23:43;5.32;;;4.00;;
68593;SDS011;55563;52.416;13.548;2023-03-20T05:26:04;5.35;;;3.83;;
68593;SDS011;55563;52.416;13.548;2023-03-20T05:28:25;5.35;;;3.70;;
68593;SDS011;55563;52.416;13.548;2023-03-20T05:30:41;5.13;;;3.78;;
68593;SDS011;55563;52.416;13.548;2023-03-20T05:33:02;6.00;;;3.60;;
68593;SDS011;55563;52.416;13.548;2023-03-20T05:35:14;5.60;;;4.55;;
68593;SDS011;55563;52.416;13.548;2023-03-20T05:37:20;5.45;;;4.38;;
68593;SDS011;55563;52.416;13.548;2023-03-20T05:39:41;5.35;;;4.22;;
68593;SDS011;55563;52.416;13.548;2023-03-20T05:41:59;6.13;;;4.35;;
68593;SDS011;55563;52.416;13.548;2023-03-20T05:44:20;6.13;;;4.35;;
68593;SDS011;55563;52.416;13.548;2023-03-20T05:46:29;6.55;;;4.78;;
68593;SDS011;55563;52.416;13.548;2023-03-20T05:48:40;5.97;;;4.57;;
68593;SDS011;55563;52.416;13.548;2023-03-20T05:50:51;5.20;;;4.45;;
68593;SDS011;55563;52.416;13.548;2023-03-20T05:53:03;6.05;;;4.38;;
68593;SDS011;55563;52.416;13.548;2023-03-20T05:55:24;5.85;;;4.68;;
68593;SDS011;55563;52.416;13.548;2023-03-20T05:57:36;5.43;;;4.75;;
68593;SDS011;55563;52.416;13.548;2023-03-20T05:59:53;6.28;;;4.97;;
68593;SDS011;55563;52.416;13.548;2023-03-20T06:02:13;5.90;;;4.60;;
68593;SDS011;55563;52.416;13.548;2023-03-20T06:04:21;6.95;;;4.80;;
68593;SDS011;55563;52.416;13.548;2023-03-20T06:06:41;5.35;;;4.15;;
68593;SDS011;55563;52.416;13.548;2023-03-20T06:08:42;5.97;;;4.80;;
68593;SDS011;55563;52.416;13.548;2023-03-20T06:10:43;5.75;;;4.63;;
68593;SDS011;55563;52.416;13.548;2023-03-20T06:12:44;5.47;;;4.60;;
68593;SDS011;55563;52.416;13.548;2023-03-20T06:16:47;5.30;;;4.45;;
68593;SDS011;55563;52.416;13.548;2023-03-20T06:18:49;6.53;;;5.10;;
68593;SDS011;55563;52.416;13.548;2023-03-20T06:20:51;5.70;;;4.45;;
68593;SDS011;55563;52.416;13.548;2023-03-20T06:22:53;6.60;;;4.90;;
68593;SDS011;55563;52.416;13.548;2023-03-20T06:24:53;6.18;;;4.80;;
68593;SDS011;55563;52.416;13.548;2023-03-20T06:26:55;7.05;;;4.68;;
68593;SDS011;55563;52.416;13.548;2023-03-20T06:28:56;6.32;;;5.13;;
68593;SDS011;55563;52.416;13.548;2023-03-20T06:30:57;6.50;;;4.80;;
68593;SDS011;55563;52.416;13.548;2023-03-20T06:32:58;7.43;;;5.28;;
68593;SDS011;55563;52.416;13.548;2023-03-20T06:35:06;7.00;;;5.05;;
68593;SDS011;55563;52.416;13.548;2023-03-20T06:37:08;6.93;;;5.07;;
68593;SDS011;55563;52.416;13.548;2023-03-20T06:39:09;7.60;;;5.30;;
68593;SDS011;55563;52.416;13.548;2023-03-20T06:41:10;7.68;;;5.80;;
68593;SDS011;55563;52.416;13.548;2023-03-20T06:43:12;7.55;;;5.15;;
68593;SDS011;55563;52.416;13.548;2023-03-20T06:45:20;7.18;;;5.30;;
68593;SDS011;55563;52.416;13.548;2023-03-20T06:47:26;7.85;;;5.63;;
68593;SDS011;55563;52.416;13.548;2023-03-20T06:49:26;9.02;;;5.55;;
68593;SDS011;55563;52.416;13.548;2023-03-20T06:51:27;8.20;;;5.70;;
68593;SDS011;55563;52.416;13.548;2023-03-20T06:53:28;8.85;;;6.25;;
68593;SDS011;55563;52.416;13.548;2023-03-20T06:57:51;9.13;;;6.40;;
68593;SDS011;55563;52.416;13.548;2023-03-20T06:59:52;9.95;;;6.55;;
68593;SDS011;55563;52.416;13.548;2023-03-20T07:01:53;12.25;;;7.13;;
68593;SDS011;55563;52.416;13.548;2023-03-20T07:03:54;8.82;;;5.97;;
68593;SDS011;55563;52.416;13.548;2023-03-20T07:06:00;10.15;;;6.60;;
68593;SDS011;55563;52.416;13.548;2023-03-20T07:08:00;10.30;;;6.25;;
68593;SDS011;55563;52.416;13.548;2023-03-20T07:10:02;9.68;;;6.53;;
68593;SDS011;55563;52.416;13.548;2023-03-20T07:12:04;11.20;;;6.03;;
68593;SDS011;55563;52.416;13.548;2023-03-20T07:14:06;8.95;;;6.32;;
68593;SDS011;55563;52.416;13.548;2023-03-20T07:16:16;10.20;;;6.20;;
68593;SDS011;55563;52.416;13.548;2023-03-20T07:18:17;9.90;;;6.55;;
68593;SDS011;55563;52.416;13.548;2023-03-20T07:20:18;13.48;;;7.68;;
68593;SDS011;55563;52.416;13.548;2023-03-20T07:22:21;10.98;;;7.53;;
68593;SDS011;55563;52.416;13.548;2023-03-20T07:24:26;10.05;;;6.93;;
68593;SDS011;55563;52.416;13.548;2023-03-20T07:26:27;11.82;;;7.80;;
68593;SDS011;55563;52.416;13.548;2023-03-20T07:28:28;11.27;;;7.60;;
68593;SDS011;55563;52.416;13.548;2023-03-20T07:30:42;12.48;;;8.30;;
68593;SDS011;55563;52.416;13.548;2023-03-20T07:34:45;14.57;;;8.98;;
68593;SDS011;55563;52.416;13.548;2023-03-20T07:36:46;14.82;;;9.73;;
68593;SDS011;55563;52.416;13.548;2023-03-20T07:38:51;14.48;;;8.98;;
68593;SDS011;55563;52.416;13.548;2023-03-20T07:40:53;15.25;;;9.18;;
68593;SDS011;55563;52.416;13.548;2023-03-20T07:42:59;15.43;;;9.25;;
68593;SDS011;55563;52.416;13.548;2023-03-20T07:45:20;13.68;;;8.32;;
68593;SDS011;55563;52.416;13.548;2023-03-20T07:47:21;13.60;;;8.50;;
68593;SDS011;55563;52.416;13.548;2023-03-20T07:49:21;12.73;;;7.88;;
68593;SDS011;55563;52.416;13.548;2023-03-20T07:51:22;14.57;;;8.68;;
68593;SDS011;55563;52.416;13.548;2023-03-20T07:53:23;13.50;;;8.00;;
68593;SDS011;55563;52.416;13.548;2023-03-20T07:55:24;14.10;;;8.00;;
68593;SDS011;55563;52.416;13.548;2023-03-20T07:57:24;14.02;;;8.77;;
68593;SDS011;55563;52.416;13.548;2023-03-20T07:59:26;14.23;;;8.57;;
68593;SDS011;55563;52.416;13.548;2023-03-20T08:01:26;14.13;;;8.93;;
68593;SDS011;55563;52.416;13.548;2023-03-20T08:03:27;12.68;;;7.47;;
68593;SDS011;55563;52.416;13.548;2023-03-20T08:05:28;13.60;;;8.23;;
68593;SDS011;55563;52.416;13.548;2023-03-20T08:07:29;13.85;;;8.07;;
68593;SDS011;55563;52.416;13.548;2023-03-20T08:09:30;12.95;;;7.43;;
68593;SDS011;55563;52.416;13.548;2023-03-20T08:11:30;12.30;;;6.85;;
68593;SDS011;55563;52.416;13.548;2023-03-20T08:13:32;13.20;;;7.53;;
68593;SDS011;55563;52.416;13.548;2023-03-20T08:15:33;12.15;;;7.18;;
68593;SDS011;55563;52.416;13.548;2023-03-20T08:17:33;12.82;;;7.18;;
68593;SDS011;55563;52.416;13.548;2023-03-20T08:19:34;13.50;;;8.00;;
68593;SDS011;55563;52.416;13.548;2023-03-20T08:21:35;12.73;;;7.07;;
68593;SDS011;55563;52.416;13.548;2023-03-20T08:23:36;13.02;;;7.75;;
68593;SDS011;55563;52.416;13.548;2023-03-20T08:25:37;13.60;;;7.50;;
68593;SDS011;55563;52.416;13.548;2023-03-20T08:27:37;10.90;;;6.60;;
68593;SDS011;55563;52.416;13.548;2023-03-20T08:29:38;15.18;;;7.88;;
68593;SDS011;55563;52.416;13.548;2023-03-20T08:31:39;14.05;;;7.22;;
68593;SDS011;55563;52.416;13.548;2023-03-20T08:33:39;11.88;;;6.57;;
68593;SDS011;55563;52.416;13.548;2023-03-20T08:35:40;14.60;;;7.97;;
68593;SDS011;55563;52.416;13.548;2023-03-20T08:37:41;15.48;;;8.85;;
68593;SDS011;55563;52.416;13.548;2023-03-20T08:39:41;14.68;;;8.02;;
68593;SDS011;55563;52.416;13.548;2023-03-20T08:41:42;15.40;;;8.07;;
68593;SDS011;55563;52.416;13.548;2023-03-20T08:43:44;15.63;;;7.78;;
68593;SDS011;55563;52.416;13.548;2023-03-20T08:45:46;14.07;;;7.47;;
68593;SDS011;55563;52.416;13.548;2023-03-20T08:47:48;12.45;;;7.05;;
68593;SDS011;55563;52.416;13.548;2023-03-20T08:49:49;14.10;;;8.18;;
68593;SDS011;55563;52.416;13.548;2023-03-20T08:51:50;13.27;;;7.65;;
68593;SDS011;55563;52.416;13.548;2023-03-20T08:53:50;13.75;;;7.55;;
68593;SDS011;55563;52.416;13.548;2023-03-20T08:55:51;15.13;;;7.25;;
68593;SDS011;55563;52.416;13.548;2023-03-20T08:57:53;13.77;;;7.05;;
68593;SDS011;55563;52.416;13.548;2023-03-20T08:59:57;13.50;;;7.25;;
68593;SDS011;55563;52.416;13.548;2023-03-20T09:01:57;14.38;;;7.28;;
68593;SDS011;55563;52.416;13.548;2023-03-20T09:03:58;12.45;;;6.63;;
68593;SDS011;55563;52.416;13.548;2023-03-20T09:05:59;13.85;;;7.05;;
68593;SDS011;55563;52.416;13.548;2023-03-20T09:07:59;14.35;;;7.32;;
68593;SDS011;55563;52.416;13.548;2023-03-20T09:10:00;12.35;;;6.55;;
68593;SDS011;55563;52.416;13.548;2023-03-20T09:12:01;12.70;;;6.93;;
68593;SDS011;55563;52.416;13.548;2023-03-20T09:14:01;14.15;;;6.75;;
68593;SDS011;55563;52.416;13.548;2023-03-20T09:16:02;11.35;;;6.47;;
68593;SDS011;55563;52.416;13.548;2023-03-20T09:18:03;12.88;;;7.03;;
68593;SDS011;55563;52.416;13.548;2023-03-20T09:20:04;10.25;;;6.20;;
68593;SDS011;55563;52.416;13.548;2023-03-20T09:22:05;11.18;;;5.90;;
68593;SDS011;55563;52.416;13.548;2023-03-20T09:24:06;12.40;;;6.63;;
68593;SDS011;55563;52.416;13.548;2023-03-20T09:26:07;12.30;;;6.43;;
68593;SDS011;55563;52.416;13.548;2023-03-20T09:28:07;11.18;;;5.50;;
68593;SDS011;55563;52.416;13.548;2023-03-20T09:30:08;11.57;;;6.20;;
68593;SDS011;55563;52.416;13.548;2023-03-20T09:32:10;11.65;;;5.88;;
68593;SDS011;55563;52.416;13.548;2023-03-20T09:34:12;10.50;;;5.93;;
68593;SDS011;55563;52.416;13.548;2023-03-20T09:36:13;14.73;;;7.00;;
68593;SDS011;55563;52.416;13.548;2023-03-20T09:38:15;15.18;;;8.77;;
68593;SDS011;55563;52.416;13.548;2023-03-20T09:40:19;11.85;;;7.32;;
68593;SDS011;55563;52.416;13.548;2023-03-20T09:44:54;9.90;;;5.05;;
68593;SDS011;55563;52.416;13.548;2023-03-20T09:47:13;10.02;;;4.85;;
68593;SDS011;55563;52.416;13.548;2023-03-20T09:49:28;10.65;;;5.88;;
68593;SDS011;55563;52.416;13.548;2023-03-20T09:53:52;10.43;;;5.25;;
68593;SDS011;55563;52.416;13.548;2023-03-20T09:55:56;10.27;;;5.30;;
68593;SDS011;55563;52.416;13.548;2023-03-20T09:58:35;9.55;;;4.88;;
68593;SDS011;55563;52.416;13.548;2023-03-20T10:00:22;10.43;;;4.80;;
68593;SDS011;55563;52.416;13.548;2023-03-20T10:02:32;11.18;;;4.90;;
68593;SDS011;55563;52.416;13.548;2023-03-20T10:04:41;8.63;;;4.50;;
68593;SDS011;55563;52.416;13.548;2023-03-20T10:06:43;9.38;;;4.90;;
68593;SDS011;55563;52.416;13.548;2023-03-20T10:08:44;8.95;;;4.60;;
68593;SDS011;55563;52.416;13.548;2023-03-20T10:10:50;9.48;;;5.18;;
68593;SDS011;55563;52.416;13.548;2023-03-20T10:12:58;8.38;;;4.95;;
68593;SDS011;55563;52.416;13.548;2023-03-20T10:15:15;8.48;;;4.47;;
68593;SDS011;55563;52.416;13.548;2023-03-20T10:24:31;7.68;;;3.97;;
68593;SDS011;55563;52.416;13.548;2023-03-20T10:26:35;5.82;;;2.85;;
68593;SDS011;55563;52.416;13.548;2023-03-20T10:28:42;7.60;;;4.10;;
68593;SDS011;55563;52.416;13.548;2023-03-20T10:33:17;8.27;;;4.13;;
68593;SDS011;55563;52.416;13.548;2023-03-20T10:40:41;8.27;;;4.10;;
68593;SDS011;55563;52.416;13.548;2023-03-20T10:42:44;7.28;;;3.58;;
68593;SDS011;55563;52.416;13.548;2023-03-20T10:44:49;8.00;;;4.00;;
68593;SDS011;55563;52.416;13.548;2023-03-20T10:49:06;6.18;;;3.42;;
68593;SDS011;55563;52.416;13.548;2023-03-20T10:51:14;6.72;;;3.53;;
68593;SDS011;55563;52.416;13.548;2023-03-20T10:53:20;6.15;;;3.70;;
68593;SDS011;55563;52.416;13.548;2023-03-20T10:55:26;10.02;;;4.80;;
68593;SDS011;55563;52.416;13.548;2023-03-20T10:57:33;5.90;;;2.90;;
68593;SDS011;55563;52.416;13.548;2023-03-20T10:59:41;13.10;;;6.85;;
68593;SDS011;55563;52.416;13.548;2023-03-20T11:01:45;17.33;;;10.18;;
68593;SDS011;55563;52.416;13.548;2023-03-20T11:03:45;10.77;;;6.35;;
68593;SDS011;55563;52.416;13.548;2023-03-20T11:05:46;12.75;;;7.93;;
68593;SDS011;55563;52.416;13.548;2023-03-20T11:08:09;9.57;;;4.05;;
68593;SDS011;55563;52.416;13.548;2023-03-20T11:10:13;4.93;;;2.72;;
68593;SDS011;55563;52.416;13.548;2023-03-20T11:12:16;5.53;;;3.17;;
68593;SDS011;55563;52.416;13.548;2023-03-20T11:14:21;6.82;;;3.70;;
68593;SDS011;55563;52.416;13.548;2023-03-20T11:16:29;5.43;;;3.17;;
68593;SDS011;55563;52.416;13.548;2023-03-20T11:18:33;5.43;;;3.15;;
68593;SDS011;55563;52.416;13.548;2023-03-20T11:20:35;5.57;;;2.97;;
68593;SDS011;55563;52.416;13.548;2023-03-20T11:22:43;5.97;;;3.50;;
68593;SDS011;55563;52.416;13.548;2023-03-20T11:24:45;6.78;;;4.00;;
68593;SDS011;55563;52.416;13.548;2023-03-20T11:26:50;5.80;;;3.33;;
68593;SDS011;55563;52.416;13.548;2023-03-20T11:28:52;5.13;;;2.72;;
68593;SDS011;55563;52.416;13.548;2023-03-20T11:30:57;5.95;;;3.00;;
68593;SDS011;55563;52.416;13.548;2023-03-20T11:33:01;4.57;;;3.03;;
68593;SDS011;55563;52.416;13.548;2023-03-20T11:37:21;8.18;;;4.72;;
68593;SDS011;55563;52.416;13.548;2023-03-20T11:39:29;6.53;;;3.60;;
68593;SDS011;55563;52.416;13.548;2023-03-20T11:41:32;6.47;;;3.58;;
68593;SDS011;55563;52.416;13.548;2023-03-20T11:43:32;5.38;;;2.97;;
68593;SDS011;55563;52.416;13.548;2023-03-20T11:45:38;4.70;;;2.95;;
68593;SDS011;55563;52.416;13.548;2023-03-20T11:47:42;4.70;;;3.05;;
68593;SDS011;55563;52.416;13.548;2023-03-20T11:49:51;5.20;;;2.78;;
68593;SDS011;55563;52.416;13.548;2023-03-20T11:51:55;4.43;;;2.70;;
68593;SDS011;55563;52.416;13.548;2023-03-20T11:54:01;5.45;;;3.13;;
68593;SDS011;55563;52.416;13.548;2023-03-20T11:56:09;5.28;;;3.05;;
68593;SDS011;55563;52.416;13.548;2023-03-20T12:00:18;4.95;;;2.90;;
68593;SDS011;55563;52.416;13.548;2023-03-20T12:02:21;5.78;;;3.10;;
68593;SDS011;55563;52.416;13.548;2023-03-20T12:04:32;4.80;;;2.92;;
68593;SDS011;55563;52.416;13.548;2023-03-20T12:06:41;5.28;;;2.80;;
68593;SDS011;55563;52.416;13.548;2023-03-20T12:08:47;5.68;;;3.30;;
68593;SDS011;55563;52.416;13.548;2023-03-20T12:10:54;5.40;;;3.13;;
68593;SDS011;55563;52.416;13.548;2023-03-20T12:13:03;6.15;;;3.17;;
68593;SDS011;55563;52.416;13.548;2023-03-20T12:15:16;6.80;;;3.40;;
68593;SDS011;55563;52.416;13.548;2023-03-20T12:19:47;6.68;;;3.30;;
68593;SDS011;55563;52.416;13.548;2023-03-20T12:21:54;6.43;;;3.08;;
68593;SDS011;55563;52.416;13.548;2023-03-20T12:24:10;6.22;;;2.90;;
68593;SDS011;55563;52.416;13.548;2023-03-20T12:26:30;5.47;;;2.92;;
68593;SDS011;55563;52.416;13.548;2023-03-20T12:33:28;5.90;;;3.42;;
68593;SDS011;55563;52.416;13.548;2023-03-20T12:35:39;6.10;;;3.45;;
68593;SDS011;55563;52.416;13.548;2023-03-20T12:37:44;5.43;;;2.97;;
68593;SDS011;55563;52.416;13.548;2023-03-20T12:39:50;5.30;;;2.97;;
68593;SDS011;55563;52.416;13.548;2023-03-20T12:46:57;5.78;;;2.88;;
68593;SDS011;55563;52.416;13.548;2023-03-20T12:49:15;5.40;;;3.72;;
68593;SDS011;55563;52.416;13.548;2023-03-20T12:54:06;5.32;;;3.00;;
68593;SDS011;55563;52.416;13.548;2023-03-20T13:01:02;4.97;;;3.10;;
68593;SDS011;55563;52.416;13.548;2023-03-20T13:10:48;6.70;;;3.40;;
68593;SDS011;55563;52.416;13.548;2023-03-20T13:13:40;6.15;;;3.38;;
68593;SDS011;55563;52.416;13.548;2023-03-20T13:15:53;6.00;;;3.15;;
68593;SDS011;55563;52.416;13.548;2023-03-20T13:18:18;5.95;;;3.15;;
68593;SDS011;55563;52.416;13.548;2023-03-20T13:20:56;6.43;;;3.40;;
68593;SDS011;55563;52.416;13.548;2023-03-20T13:23:21;6.68;;;3.42;;
68593;SDS011;55563;52.416;13.548;2023-03-20T13:25:31;6.00;;;3.17;;
68593;SDS011;55563;52.416;13.548;2023-03-20T13:27:48;5.65;;;3.10;;
68593;SDS011;55563;52.416;13.548;2023-03-20T13:29:59;5.35;;;3.00;;
68593;SDS011;55563;52.416;13.548;2023-03-20T13:32:21;6.30;;;3.25;;
68593;SDS011;55563;52.416;13.548;2023-03-20T13:34:48;6.28;;;3.40;;
68593;SDS011;55563;52.416;13.548;2023-03-20T13:37:13;6.32;;;3.60;;
68593;SDS011;55563;52.416;13.548;2023-03-20T13:39:37;6.32;;;3.20;;
68593;SDS011;55563;52.416;13.548;2023-03-20T13:41:43;5.88;;;3.10;;
68593;SDS011;55563;52.416;13.548;2023-03-20T13:43:48;6.45;;;3.95;;
68593;SDS011;55563;52.416;13.548;2023-03-20T13:46:05;8.52;;;5.30;;
68593;SDS011;55563;52.416;13.548;2023-03-20T13:48:41;8.27;;;4.30;;
68593;SDS011;55563;52.416;13.548;2023-03-20T13:50:50;7.53;;;3.95;;
68593;SDS011;55563;52.416;13.548;2023-03-20T13:53:02;8.98;;;4.40;;
68593;SDS011;55563;52.416;13.548;2023-03-20T13:55:23;7.13;;;3.90;;
68593;SDS011;55563;52.416;13.548;2023-03-20T14:02:48;6.25;;;3.60;;
68593;SDS011;55563;52.416;13.548;2023-03-20T14:05:13;7.72;;;3.80;;